Time;durP1;ratioP1;P1;durP2;ratioP2;P2;SDS_P1;SDS_P2;PMS_P1;PMS_P2;Temp;Humidity;BMP_temperature;BMP_pressure;BME280_temperature;BME280_humidity;BME280_pressure;Samples;Min_cycle;Max_cycle;Signal;HPM_P1;HPM_P2
2023/05/28 00:00:24;;;;;;;5.30;2.63;;;12.60;99.90;;;;;;5095220;28;20177;-72
2023/05/28 00:02:49;;;;;;;4.40;3.17;;;12.70;99.90;;;;;;5095353;28;20176;-71
2023/05/28 00:05:15;;;;;;;3.10;2.43;;;12.90;99.90;;;;;;5094248;28;20200;-71
2023/05/28 00:07:41;;;;;;;3.73;2.63;;;13.00;99.90;;;;;;5095038;28;20177;-71
2023/05/28 00:10:07;;;;;;;3.93;2.57;;;12.80;99.90;;;;;;5095002;28;20165;-71
2023/05/28 00:12:33;;;;;;;5.90;2.80;;;12.50;99.90;;;;;;5095221;28;20359;-71
2023/05/28 00:14:59;;;;;;;3.70;2.60;;;12.70;99.90;;;;;;5094554;28;20664;-70
2023/05/28 00:17:25;;;;;;;4.83;2.77;;;12.60;99.90;;;;;;5094469;28;20653;-71
2023/05/28 00:19:50;;;;;;;6.67;3.00;;;12.60;99.90;;;;;;5094941;28;20237;-71
2023/05/28 00:22:16;;;;;;;4.53;2.83;;;12.40;99.90;;;;;;5095013;28;20176;-72
2023/05/28 00:24:42;;;;;;;6.10;2.63;;;12.00;99.90;;;;;;5094517;28;20228;-72
2023/05/28 00:27:07;;;;;;;5.03;2.60;;;11.90;99.90;;;;;;5094092;28;20197;-71
2023/05/28 00:29:33;;;;;;;5.83;2.63;;;12.20;99.90;;;;;;5094658;28;20510;-70
2023/05/28 00:31:58;;;;;;;4.27;2.77;;;12.00;99.90;;;;;;5094365;28;20252;-72
2023/05/28 00:34:25;;;;;;;5.63;3.03;;;12.00;99.90;;;;;;5067744;28;20177;-72
2023/05/28 00:36:51;;;;;;;4.63;2.80;;;11.80;99.90;;;;;;5094662;28;20257;-71
2023/05/28 00:39:17;;;;;;;5.77;3.20;;;11.80;99.90;;;;;;5094690;28;20529;-71
2023/05/28 00:41:43;;;;;;;5.13;2.70;;;11.90;99.90;;;;;;5094551;28;20177;-71
2023/05/28 00:44:12;;;;;;;6.37;3.03;;;11.80;99.90;;;;;;5094203;28;20193;-71
2023/05/28 00:46:40;;;;;;;4.20;3.07;;;11.60;99.90;;;;;;5094384;28;20193;-71
2023/05/28 00:49:05;;;;;;;4.10;2.80;;;11.70;99.90;;;;;;5075956;28;20167;-71
2023/05/28 00:51:33;;;;;;;5.10;3.33;;;11.60;99.90;;;;;;5076044;28;20264;-71
2023/05/28 00:53:59;;;;;;;6.17;2.93;;;11.70;99.90;;;;;;5068416;28;20238;-71
2023/05/28 00:56:24;;;;;;;4.57;2.80;;;11.50;99.90;;;;;;5094145;28;20200;-71
2023/05/28 00:58:50;;;;;;;4.70;3.10;;;11.60;99.90;;;;;;5093766;28;20177;-70
2023/05/28 01:01:16;;;;;;;6.50;3.20;;;11.60;99.90;;;;;;5094583;28;20181;-71
2023/05/28 01:03:42;;;;;;;6.13;2.70;;;11.60;99.90;;;;;;5094524;28;20191;-71
2023/05/28 01:06:11;;;;;;;3.97;3.10;;;11.40;99.90;;;;;;5094330;28;20228;-71
2023/05/28 01:08:43;;;;;;;7.40;3.40;;;11.50;99.90;;;;;;5094365;28;20639;-71
2023/05/28 01:11:13;;;;;;;6.37;3.50;;;11.20;99.90;;;;;;5094970;28;20527;-71
2023/05/28 01:13:40;;;;;;;6.67;3.03;;;11.10;99.90;;;;;;5094867;28;20196;-71
2023/05/28 01:16:06;;;;;;;8.43;3.30;;;11.40;99.90;;;;;;5093754;28;20766;-71
2023/05/28 01:18:32;;;;;;;5.13;3.40;;;11.10;99.90;;;;;;5076324;28;20272;-71
2023/05/28 01:21:01;;;;;;;5.10;3.40;;;11.10;99.90;;;;;;5093718;28;20161;-71
2023/05/28 01:23:28;;;;;;;4.53;2.80;;;11.30;99.90;;;;;;5094216;28;20177;-71
2023/05/28 01:25:59;;;;;;;10.73;3.30;;;11.10;99.90;;;;;;5093645;28;20207;-71
2023/05/28 01:28:24;;;;;;;4.63;2.80;;;11.20;99.90;;;;;;5093594;28;20256;-71
2023/05/28 01:30:52;;;;;;;7.03;3.40;;;11.00;99.90;;;;;;5090595;28;20602;-71
2023/05/28 01:33:18;;;;;;;6.70;2.97;;;11.10;99.90;;;;;;5084880;28;20161;-71
2023/05/28 01:35:44;;;;;;;5.07;2.80;;;11.00;99.90;;;;;;5093786;28;20213;-71
2023/05/28 01:38:13;;;;;;;5.70;3.00;;;10.90;99.90;;;;;;5093973;28;20259;-71
2023/05/28 01:40:43;;;;;;;4.60;2.70;;;10.60;99.90;;;;;;5090246;28;20517;-71
2023/05/28 01:43:08;;;;;;;4.87;2.83;;;10.50;99.90;;;;;;5084921;28;20199;-70
2023/05/28 01:45:35;;;;;;;6.77;3.40;;;10.80;99.90;;;;;;5093756;28;20209;-71
2023/05/28 01:48:01;;;;;;;5.10;3.03;;;10.70;99.90;;;;;;5094660;28;20165;-71
2023/05/28 01:50:27;;;;;;;6.00;3.03;;;10.60;99.90;;;;;;5094642;28;20519;-71
2023/05/28 01:52:52;;;;;;;6.30;3.30;;;10.70;99.90;;;;;;5075845;28;20264;-71
2023/05/28 01:55:19;;;;;;;5.47;3.33;;;10.80;99.90;;;;;;5077948;28;20228;-71
2023/05/28 01:57:44;;;;;;;4.27;3.23;;;11.00;99.90;;;;;;5093405;28;20272;-71
2023/05/28 02:00:11;;;;;;;5.97;2.93;;;10.80;99.90;;;;;;5093347;28;20201;-71
2023/05/28 02:02:37;;;;;;;7.17;3.47;;;10.60;99.90;;;;;;5093835;28;20543;-71
2023/05/28 02:05:03;;;;;;;6.00;2.80;;;10.60;99.90;;;;;;5075049;28;20200;-71
2023/05/28 02:07:29;;;;;;;5.87;2.80;;;10.50;99.90;;;;;;5093940;28;20650;-71
2023/05/28 02:09:55;;;;;;;5.30;3.33;;;10.80;99.90;;;;;;5093345;28;20165;-71
2023/05/28 02:12:21;;;;;;;5.20;2.97;;;10.70;99.90;;;;;;5093934;28;20611;-71
2023/05/28 02:14:47;;;;;;;3.57;3.20;;;10.80;99.90;;;;;;5075211;28;20256;-71
2023/05/28 02:17:12;;;;;;;4.00;2.70;;;10.70;99.90;;;;;;5081186;28;20198;-71
2023/05/28 02:19:38;;;;;;;5.90;3.43;;;10.60;99.90;;;;;;5092189;28;20569;-72
2023/05/28 02:22:10;;;;;;;6.60;3.00;;;10.60;99.90;;;;;;5093853;28;20177;-71
2023/05/28 02:24:36;;;;;;;5.90;3.13;;;10.70;99.90;;;;;;5093075;28;20238;-71
2023/05/28 02:27:03;;;;;;;7.23;3.03;;;10.80;99.90;;;;;;5093689;28;20653;-71
2023/05/28 02:29:29;;;;;;;6.83;3.43;;;10.60;99.90;;;;;;5093182;28;20180;-70
2023/05/28 02:31:54;;;;;;;6.17;2.87;;;10.70;99.90;;;;;;5093652;28;20173;-71
2023/05/28 02:34:20;;;;;;;5.13;2.90;;;10.50;99.90;;;;;;5093535;28;20177;-71
2023/05/28 02:36:46;;;;;;;9.60;3.13;;;10.30;99.90;;;;;;5092564;28;20197;-71
2023/05/28 02:39:11;;;;;;;4.53;3.13;;;10.60;99.90;;;;;;5092635;28;20604;-71
2023/05/28 02:41:37;;;;;;;5.23;3.07;;;10.70;99.90;;;;;;5092977;28;20627;-71
2023/05/28 02:44:02;;;;;;;4.37;3.13;;;10.30;99.90;;;;;;5092878;28;20231;-71
2023/05/28 02:46:28;;;;;;;6.30;3.53;;;10.10;99.90;;;;;;5092929;28;20193;-71
2023/05/28 02:48:53;;;;;;;4.77;3.13;;;10.50;99.90;;;;;;5092697;28;20762;-71
2023/05/28 02:51:19;;;;;;;5.80;3.23;;;10.50;99.90;;;;;;5093329;28;20167;-71
2023/05/28 02:53:45;;;;;;;5.37;3.10;;;10.30;99.90;;;;;;5092715;28;20214;-71
2023/05/28 02:56:11;;;;;;;5.97;3.77;;;10.20;99.90;;;;;;5093064;28;20188;-71
2023/05/28 02:58:36;;;;;;;6.87;3.07;;;10.20;99.90;;;;;;5074701;28;20705;-72
2023/05/28 03:01:03;;;;;;;7.03;3.60;;;10.20;99.90;;;;;;5081042;28;20230;-69
2023/05/28 03:03:29;;;;;;;6.60;3.57;;;10.00;99.90;;;;;;5091194;28;20523;-71
2023/05/28 03:05:54;;;;;;;6.47;3.60;;;10.20;99.90;;;;;;5091970;28;20698;-71
2023/05/28 03:08:20;;;;;;;5.33;3.37;;;10.40;99.90;;;;;;5092554;28;20172;-71
2023/05/28 03:10:46;;;;;;;7.10;2.90;;;10.10;99.90;;;;;;5092390;28;20525;-71
2023/05/28 03:13:11;;;;;;;7.53;3.60;;;10.20;99.90;;;;;;5074819;28;20165;-71
2023/05/28 03:15:37;;;;;;;4.67;2.83;;;10.40;99.90;;;;;;5073860;28;20193;-71
2023/05/28 03:18:04;;;;;;;4.13;2.97;;;10.00;99.90;;;;;;5092796;28;20184;-71
2023/05/28 03:20:30;;;;;;;4.33;3.47;;;9.90;99.90;;;;;;5092550;28;20169;-71
2023/05/28 03:22:56;;;;;;;6.37;3.27;;;9.90;99.90;;;;;;5086996;28;20169;-71
2023/05/28 03:25:23;;;;;;;5.57;3.30;;;10.00;99.90;;;;;;5084504;28;20197;-71
2023/05/28 03:27:48;;;;;;;5.50;3.50;;;9.70;99.90;;;;;;5092364;28;20161;-70
2023/05/28 03:30:14;;;;;;;4.30;2.70;;;9.90;99.90;;;;;;5092346;28;20543;-72
2023/05/28 03:32:40;;;;;;;5.87;3.47;;;9.80;99.90;;;;;;5091802;28;20201;-69
2023/05/28 03:35:07;;;;;;;3.63;2.87;;;9.80;99.90;;;;;;5091936;28;20280;-72
2023/05/28 03:37:33;;;;;;;3.93;3.43;;;9.80;99.90;;;;;;5074086;28;20193;-71
2023/05/28 03:39:59;;;;;;;4.63;3.20;;;9.70;99.90;;;;;;5092215;28;20181;-70
2023/05/28 03:42:24;;;;;;;7.83;3.20;;;9.70;99.90;;;;;;5091934;28;20181;-71
2023/05/28 03:44:50;;;;;;;6.03;2.67;;;9.80;99.90;;;;;;5091572;28;20185;-71
2023/05/28 03:47:15;;;;;;;3.60;2.80;;;9.60;99.90;;;;;;5092476;28;20169;-71
2023/05/28 03:49:41;;;;;;;4.07;3.13;;;9.60;99.90;;;;;;5092724;28;20278;-71
2023/05/28 03:52:07;;;;;;;3.47;2.80;;;9.50;99.90;;;;;;5093975;28;20168;-70
2023/05/28 03:54:32;;;;;;;4.73;3.23;;;9.60;99.90;;;;;;5084820;28;20228;-71
2023/05/28 03:56:58;;;;;;;7.60;3.07;;;9.50;99.90;;;;;;5093262;28;20212;-70
2023/05/28 03:59:24;;;;;;;5.60;3.17;;;9.40;99.90;;;;;;5096068;28;20547;-71
2023/05/28 04:01:49;;;;;;;7.53;3.63;;;9.70;99.90;;;;;;5096347;28;20200;-71
2023/05/28 04:04:15;;;;;;;4.57;3.60;;;9.80;99.90;;;;;;5095880;28;20238;-70
2023/05/28 04:06:41;;;;;;;4.13;2.83;;;9.70;99.90;;;;;;5095442;28;20689;-72
2023/05/28 04:09:07;;;;;;;3.10;2.80;;;9.60;99.90;;;;;;5096008;28;20242;-71
2023/05/28 04:11:34;;;;;;;3.83;2.97;;;9.60;99.90;;;;;;5095585;28;20223;-71
2023/05/28 04:14:00;;;;;;;6.23;3.27;;;9.60;99.90;;;;;;5095718;28;20173;-71
2023/05/28 04:16:26;;;;;;;5.10;3.13;;;9.60;99.90;;;;;;5095403;28;20208;-71
2023/05/28 04:18:53;;;;;;;5.70;3.00;;;9.70;99.90;;;;;;5095121;28;20271;-71
2023/05/28 04:21:20;;;;;;;4.17;3.03;;;9.60;99.90;;;;;;5082167;28;20173;-71
2023/05/28 04:23:46;;;;;;;4.40;3.10;;;9.70;99.90;;;;;;5083183;28;20174;-71
2023/05/28 04:26:12;;;;;;;6.03;3.47;;;9.70;99.90;;;;;;5093331;28;20241;-70
2023/05/28 04:28:38;;;;;;;4.60;3.00;;;9.80;99.90;;;;;;5095139;28;20161;-71
2023/05/28 04:31:04;;;;;;;5.13;3.27;;;9.80;99.90;;;;;;5095098;28;20191;-71
2023/05/28 04:33:30;;;;;;;3.63;3.07;;;10.00;99.90;;;;;;5095501;28;20542;-71
2023/05/28 04:36:01;;;;;;;3.30;2.93;;;10.00;99.90;;;;;;5095156;28;20197;-69
2023/05/28 04:38:31;;;;;;;5.67;3.17;;;10.00;99.90;;;;;;5080940;28;20208;-72
2023/05/28 04:40:57;;;;;;;6.27;3.53;;;10.10;99.90;;;;;;5095147;28;20656;-71
2023/05/28 04:43:23;;;;;;;5.10;2.90;;;10.30;99.90;;;;;;5095230;28;20264;-72
2023/05/28 04:45:49;;;;;;;3.50;3.00;;;10.30;99.90;;;;;;5076676;28;20300;-71
2023/05/28 04:48:15;;;;;;;4.37;3.47;;;10.30;99.90;;;;;;5068590;28;20169;-69
2023/05/28 04:50:41;;;;;;;6.30;2.93;;;11.60;99.90;;;;;;5095185;28;20173;-71
2023/05/28 04:53:07;;;;;;;3.40;2.97;;;;;;;;;;5094510;28;20169;-72
2023/05/28 04:55:33;;;;;;;5.07;2.93;;;12.60;99.90;;;;;;5094709;28;20197;-71
2023/05/28 04:57:58;;;;;;;3.83;2.73;;;13.30;99.90;;;;;;5094774;28;20181;-71
2023/05/28 05:00:26;;;;;;;4.73;3.13;;;13.40;99.90;;;;;;5075446;28;20271;-70
2023/05/28 05:02:52;;;;;;;3.43;2.60;;;13.50;99.90;;;;;;5094900;28;20184;-72
2023/05/28 05:05:18;;;;;;;4.67;2.37;;;13.50;99.90;;;;;;5080804;28;20201;-71
2023/05/28 05:07:45;;;;;;;5.03;3.00;;;12.60;99.90;;;;;;5094550;28;20200;-71
2023/05/28 05:10:11;;;;;;;4.63;2.60;;;12.70;99.90;;;;;;5094938;28;20208;-71
2023/05/28 05:12:36;;;;;;;3.80;3.33;;;12.70;99.90;;;;;;5069184;28;20212;-71
2023/05/28 05:15:04;;;;;;;3.57;2.60;;;12.40;99.90;;;;;;5089248;28;20181;-70
2023/05/28 05:17:30;;;;;;;6.33;3.17;;;12.60;99.90;;;;;;5095003;28;20197;-71
2023/05/28 05:19:56;;;;;;;3.17;2.77;;;13.00;99.90;;;;;;5088180;23;20626;-65
2023/05/28 05:22:22;;;;;;;5.27;2.50;;;13.00;99.90;;;;;;5001650;28;20179;-65
2023/05/28 05:24:48;;;;;;;4.43;3.33;;;13.20;99.90;;;;;;4992908;28;20207;-64
2023/05/28 05:27:13;;;;;;;7.03;2.87;;;13.20;99.90;;;;;;5009281;28;20225;-65
2023/05/28 05:29:39;;;;;;;5.93;3.03;;;13.50;99.90;;;;;;4993991;28;20173;-64
2023/05/28 05:32:05;;;;;;;4.60;3.00;;;13.40;99.90;;;;;;4989434;28;20165;-65
2023/05/28 05:34:30;;;;;;;5.57;3.20;;;13.60;99.90;;;;;;4990764;28;20365;-64
2023/05/28 05:36:58;;;;;;;4.47;2.90;;;13.70;99.90;;;;;;4996183;28;20846;-67
2023/05/28 05:39:24;;;;;;;4.63;2.90;;;14.00;99.90;;;;;;5005659;28;20180;-65
2023/05/28 05:41:50;;;;;;;5.73;2.70;;;14.60;99.90;;;;;;4998489;28;20221;-65
2023/05/28 05:44:16;;;;;;;3.40;2.90;;;15.40;99.90;;;;;;5004740;28;20240;-66
2023/05/28 05:46:41;;;;;;;5.30;2.90;;;15.40;99.90;;;;;;4989964;28;20199;-65
2023/05/28 05:49:08;;;;;;;4.73;2.93;;;15.70;99.90;;;;;;4990292;28;20207;-67
2023/05/28 05:51:33;;;;;;;3.37;2.77;;;15.70;99.90;;;;;;4989123;28;20220;-65
2023/05/28 05:53:59;;;;;;;6.37;3.07;;;15.60;99.90;;;;;;4987866;28;20182;-65
2023/05/28 05:56:25;;;;;;;5.03;3.37;;;15.60;99.90;;;;;;4992396;28;20281;-65
2023/05/28 05:58:51;;;;;;;4.20;2.90;;;15.70;99.90;;;;;;4989812;28;20181;-66
2023/05/28 06:01:17;;;;;;;5.30;2.83;;;15.80;99.90;;;;;;5004266;28;20653;-65
2023/05/28 06:03:43;;;;;;;3.63;3.03;;;16.00;99.90;;;;;;5009883;28;20190;-70
2023/05/28 06:06:09;;;;;;;8.53;2.93;;;16.10;99.90;;;;;;5009820;28;20191;-70
2023/05/28 06:08:35;;;;;;;4.87;2.90;;;16.20;99.90;;;;;;5009829;28;20261;-70
2023/05/28 06:11:00;;;;;;;8.37;3.20;;;16.30;99.90;;;;;;5011052;28;20243;-71
2023/05/28 06:13:26;;;;;;;4.27;3.00;;;16.40;99.90;;;;;;4998587;28;20273;-71
2023/05/28 06:15:52;;;;;;;5.20;2.60;;;16.70;99.90;;;;;;4999502;28;20198;-70
2023/05/28 06:18:17;;;;;;;6.00;3.00;;;16.60;99.90;;;;;;4994802;28;20186;-70
2023/05/28 06:20:43;;;;;;;3.17;2.70;;;16.60;99.90;;;;;;5000113;28;20199;-70
2023/05/28 06:23:09;;;;;;;4.17;2.70;;;16.60;99.90;;;;;;4991950;28;20195;-71
2023/05/28 06:25:35;;;;;;;3.73;2.87;;;16.80;99.90;;;;;;4978883;28;20210;-71
2023/05/28 06:28:01;;;;;;;6.10;3.07;;;16.70;99.90;;;;;;4990762;28;20165;-70
2023/05/28 06:30:27;;;;;;;5.83;3.03;;;16.70;99.90;;;;;;4990721;28;20261;-70
2023/05/28 06:32:52;;;;;;;5.97;3.03;;;16.90;99.90;;;;;;5002624;28;20261;-70
2023/05/28 06:35:18;;;;;;;4.23;2.73;;;16.90;99.90;;;;;;5002719;28;20205;-70
2023/05/28 06:37:44;;;;;;;7.07;2.80;;;17.10;99.90;;;;;;4978313;28;20643;-70
2023/05/28 06:40:10;;;;;;;5.63;2.53;;;17.20;99.90;;;;;;5004377;28;20177;-71
2023/05/28 06:42:37;;;;;;;6.20;2.93;;;17.30;99.90;;;;;;4995193;28;20255;-71
2023/05/28 06:45:03;;;;;;;4.53;2.80;;;17.30;99.90;;;;;;5010157;28;20210;-70
2023/05/28 06:47:29;;;;;;;4.87;2.93;;;17.40;99.90;;;;;;5007058;28;20179;-70
2023/05/28 06:49:55;;;;;;;5.50;3.13;;;17.40;99.90;;;;;;4995684;28;20177;-70
2023/05/28 06:52:21;;;;;;;3.50;2.77;;;17.30;99.90;;;;;;4987976;28;20172;-70
2023/05/28 06:54:47;;;;;;;4.20;3.20;;;17.30;99.90;;;;;;4990556;28;20185;-70
2023/05/28 06:57:12;;;;;;;5.10;3.10;;;17.40;99.90;;;;;;5003345;28;20180;-70
2023/05/28 06:59:38;;;;;;;6.50;2.77;;;17.40;99.90;;;;;;4990090;28;20553;-69
2023/05/28 07:02:04;;;;;;;5.43;3.47;;;17.50;99.90;;;;;;4990995;28;20177;-71
2023/05/28 07:04:30;;;;;;;5.73;2.77;;;17.70;99.90;;;;;;4990797;28;20254;-71
2023/05/28 07:06:55;;;;;;;4.27;3.00;;;17.90;99.90;;;;;;4990976;28;20188;-71
2023/05/28 07:09:21;;;;;;;5.00;2.87;;;18.00;99.90;;;;;;4988875;28;20183;-69
2023/05/28 07:11:46;;;;;;;4.70;3.03;;;18.10;99.90;;;;;;4970860;28;20185;-71
2023/05/28 07:14:12;;;;;;;4.67;3.43;;;18.20;99.90;;;;;;4984123;28;20176;-71
2023/05/28 07:16:38;;;;;;;3.73;3.03;;;17.90;99.90;;;;;;4977999;28;20196;-71
2023/05/28 07:19:04;;;;;;;7.17;3.37;;;18.00;99.90;;;;;;5001701;28;20172;-69
2023/05/28 07:21:29;;;;;;;4.47;3.13;;;18.00;99.90;;;;;;4991301;28;20318;-69
2023/05/28 07:23:55;;;;;;;5.27;2.97;;;18.00;99.90;;;;;;5005606;28;20263;-70
2023/05/28 07:26:21;;;;;;;5.60;2.90;;;18.00;99.90;;;;;;5010592;28;20230;-70
2023/05/28 07:28:47;;;;;;;4.37;2.90;;;18.20;99.90;;;;;;5010641;28;20651;-71
2023/05/28 07:31:12;;;;;;;5.30;2.80;;;18.30;99.90;;;;;;5003343;28;20309;-70
2023/05/28 07:33:38;;;;;;;4.32;3.15;;;18.50;99.90;;;;;;5000283;28;20180;-71
2023/05/28 07:36:04;;;;;;;3.17;2.70;;;18.70;99.90;;;;;;5012765;28;20249;-72
2023/05/28 07:38:30;;;;;;;4.95;2.83;;;18.90;99.90;;;;;;5012484;28;20577;-71
2023/05/28 07:40:55;;;;;;;7.97;3.15;;;18.90;99.90;;;;;;5013287;28;20247;-70
2023/05/28 07:43:21;;;;;;;5.80;3.08;;;18.70;99.90;;;;;;5011222;28;20234;-71
2023/05/28 07:45:46;;;;;;;4.47;3.35;;;18.70;99.90;;;;;;5011793;28;20211;-70
2023/05/28 07:48:12;;;;;;;5.28;3.28;;;18.80;99.90;;;;;;5011846;28;20259;-71
2023/05/28 07:50:38;;;;;;;5.00;3.30;;;19.10;99.90;;;;;;5010382;28;20258;-70
2023/05/28 07:53:04;;;;;;;7.45;3.55;;;19.10;99.90;;;;;;5011404;28;20168;-71
2023/05/28 07:55:31;;;;;;;4.72;3.13;;;19.20;99.90;;;;;;5011437;28;20203;-70
2023/05/28 07:57:58;;;;;;;3.33;2.80;;;19.10;99.90;;;;;;5007908;28;20184;-69
2023/05/28 08:00:27;;;;;;;5.00;2.65;;;19.30;99.90;;;;;;5003270;28;20550;-69
2023/05/28 08:02:53;;;;;;;5.30;3.05;;;19.30;99.90;;;;;;5011827;28;20172;-70
2023/05/28 08:05:18;;;;;;;3.33;2.80;;;19.20;99.90;;;;;;5007872;28;20496;-70
2023/05/28 08:07:44;;;;;;;7.40;3.13;;;19.40;99.90;;;;;;4997465;28;20172;-68
2023/05/28 08:10:10;;;;;;;7.05;2.92;;;19.40;99.90;;;;;;5011814;28;20228;-71
2023/05/28 08:12:36;;;;;;;3.50;3.08;;;19.50;99.90;;;;;;5011494;28;20180;-71
2023/05/28 08:15:03;;;;;;;4.97;3.00;;;19.60;99.90;;;;;;5011443;28;20183;-71
2023/05/28 08:17:31;;;;;;;3.40;2.83;;;19.80;99.90;;;;;;4999113;28;20181;-71
2023/05/28 08:19:57;;;;;;;4.03;2.67;;;19.90;99.90;;;;;;5002792;28;20209;-71
2023/05/28 08:22:23;;;;;;;4.50;2.63;;;20.00;99.90;;;;;;5007232;28;20272;-70
2023/05/28 08:24:48;;;;;;;6.60;3.20;;;20.10;99.90;;;;;;5010968;28;20553;-71
2023/05/28 08:27:14;;;;;;;3.40;2.55;;;20.30;99.90;;;;;;5011368;28;20167;-72
2023/05/28 08:29:40;;;;;;;4.63;3.03;;;20.30;99.90;;;;;;5011376;28;20183;-71
2023/05/28 08:32:06;;;;;;;3.85;2.70;;;20.40;99.90;;;;;;5011575;28;20169;-72
2023/05/28 08:34:33;;;;;;;4.47;2.58;;;20.30;99.90;;;;;;5011140;28;20229;-70
2023/05/28 08:36:59;;;;;;;5.93;2.92;;;20.40;99.90;;;;;;5002842;28;20257;-70
2023/05/28 08:39:26;;;;;;;5.53;2.90;;;20.50;99.90;;;;;;5009627;28;20179;-71
2023/05/28 08:41:53;;;;;;;5.20;3.17;;;20.50;99.90;;;;;;4992254;28;20187;-70
2023/05/28 08:44:19;;;;;;;6.68;3.40;;;20.90;99.90;;;;;;4992148;28;20204;-71
2023/05/28 08:46:45;;;;;;;3.42;2.72;;;20.80;99.90;;;;;;4992138;28;20196;-71
2023/05/28 08:49:11;;;;;;;4.95;2.85;;;20.70;99.90;;;;;;4990838;28;20184;-70
2023/05/28 08:51:39;;;;;;;6.82;3.13;;;21.00;99.90;;;;;;4991906;28;20177;-71
2023/05/28 08:54:05;;;;;;;3.65;2.97;;;21.00;99.90;;;;;;4990498;28;20176;-70
2023/05/28 08:56:31;;;;;;;8.20;3.35;;;21.00;99.90;;;;;;4991634;28;20200;-70
2023/05/28 08:58:58;;;;;;;4.85;3.10;;;20.90;99.90;;;;;;4992450;28;20310;-70
2023/05/28 09:01:23;;;;;;;3.55;2.72;;;21.00;99.90;;;;;;4991877;28;20201;-70
2023/05/28 09:03:49;;;;;;;4.20;2.40;;;21.20;99.90;;;;;;4991170;28;20239;-70
2023/05/28 09:06:16;;;;;;;5.53;3.28;;;21.40;99.90;;;;;;4990320;28;20229;-69
2023/05/28 09:08:44;;;;;;;6.38;2.88;;;21.10;99.90;;;;;;4991478;28;20184;-71
2023/05/28 09:11:14;;;;;;;6.03;2.70;;;21.00;99.90;;;;;;4991758;28;20197;-71
2023/05/28 09:13:47;;;;;;;4.40;2.75;;;21.30;99.90;;;;;;4990455;28;20517;-71
2023/05/28 09:16:21;;;;;;;5.10;2.97;;;21.60;99.90;;;;;;4991523;28;20568;-71
2023/05/28 09:18:51;;;;;;;6.50;3.00;;;21.50;99.90;;;;;;4974436;28;20272;-69
2023/05/28 09:21:19;;;;;;;4.43;2.90;;;21.30;99.90;;;;;;4985972;28;20688;-71
2023/05/28 09:23:49;;;;;;;3.95;2.70;;;21.40;99.90;;;;;;4991032;28;20648;-71
2023/05/28 09:26:15;;;;;;;6.90;3.25;;;21.40;99.90;;;;;;4989631;28;20284;-70
2023/05/28 09:28:42;;;;;;;5.70;4.22;;;21.60;99.90;;;;;;4991219;28;20255;-70
2023/05/28 09:31:08;;;;;;;5.38;3.45;;;21.90;99.90;;;;;;4990943;28;20169;-71
2023/05/28 09:33:35;;;;;;;4.47;3.65;;;22.30;99.90;;;;;;4991437;28;20168;-70
2023/05/28 09:36:02;;;;;;;4.90;2.70;;;22.50;99.90;;;;;;4991253;28;20199;-69
2023/05/28 09:38:40;;;;;;;5.43;3.20;;;22.90;99.90;;;;;;4991584;28;20636;-69
2023/05/28 09:41:18;;;;;;;4.57;3.15;;;22.80;99.90;;;;;;4990964;28;20642;-70
2023/05/28 09:43:45;;;;;;;4.55;3.28;;;22.60;98.50;;;;;;4991411;28;20609;-69
2023/05/28 09:46:11;;;;;;;7.75;3.35;;;22.30;97.50;;;;;;4991473;28;20253;-68
2023/05/28 09:48:36;;;;;;;4.30;2.90;;;22.60;99.90;;;;;;4990806;28;20180;-69
2023/05/28 09:51:04;;;;;;;7.50;3.10;;;22.70;99.90;;;;;;4990649;28;20173;-69
2023/05/28 09:53:33;;;;;;;6.22;2.95;;;22.40;98.10;;;;;;4989780;28;20169;-68
2023/05/28 09:56:00;;;;;;;3.47;2.70;;;22.60;99.30;;;;;;4989786;28;20250;-69
2023/05/28 09:58:34;;;;;;;3.72;2.97;;;22.60;99.10;;;;;;4990539;28;20196;-71
2023/05/28 10:01:03;;;;;;;7.30;3.38;;;23.10;99.30;;;;;;5002563;28;20179;-69
2023/05/28 10:03:37;;;;;;;4.63;3.13;;;22.80;99.90;;;;;;5009739;28;20570;-70
2023/05/28 10:06:17;;;;;;;6.10;3.08;;;23.20;99.90;;;;;;5010193;28;20211;-68
2023/05/28 10:08:49;;;;;;;7.65;2.97;;;23.40;99.00;;;;;;5002655;28;20632;-71
2023/05/28 10:11:17;;;;;;;5.38;2.88;;;23.00;95.50;;;;;;4989489;28;20165;-71
2023/05/28 10:13:42;;;;;;;7.53;3.28;;;23.00;98.90;;;;;;4990438;28;20238;-69
2023/05/28 10:16:08;;;;;;;5.78;3.17;;;23.10;97.40;;;;;;4990108;28;20243;-69
2023/05/28 10:18:35;;;;;;;4.28;2.88;;;23.00;95.90;;;;;;4990816;28;20651;-68
2023/05/28 10:21:01;;;;;;;4.47;3.28;;;23.20;95.80;;;;;;4989192;28;20199;-68
2023/05/28 10:23:27;;;;;;;7.82;3.08;;;23.30;95.50;;;;;;4990727;28;20172;-69
2023/05/28 10:25:54;;;;;;;4.68;2.92;;;23.60;99.90;;;;;;4989301;28;20205;-70
2023/05/28 10:28:21;;;;;;;4.18;3.17;;;23.60;94.00;;;;;;4990475;28;20568;-70
2023/05/28 10:31:06;;;;;;;5.07;3.22;;;23.80;95.40;;;;;;4990330;28;20164;-70
2023/05/28 10:33:37;;;;;;;5.13;3.30;;;23.80;93.50;;;;;;4990872;28;20164;-69
2023/05/28 10:36:03;;;;;;;7.63;2.95;;;23.90;92.80;;;;;;4991007;28;20218;-69
2023/05/28 10:38:29;;;;;;;6.80;3.05;;;24.10;91.20;;;;;;4990857;28;20230;-70
2023/05/28 10:41:05;;;;;;;4.30;3.00;;;24.10;90.10;;;;;;4990079;28;20188;-71
2023/05/28 10:43:45;;;;;;;8.07;3.58;;;23.80;92.60;;;;;;4990489;28;20259;-69
2023/05/28 10:46:17;;;;;;;4.68;2.80;;;24.20;89.50;;;;;;4990590;28;20797;-71
2023/05/28 10:49:03;;;;;;;3.25;2.95;;;23.90;90.50;;;;;;4990593;28;20175;-70
2023/05/28 10:52:01;;;;;;;5.97;3.35;;;24.30;90.60;;;;;;4990698;28;20524;-70
2023/05/28 10:54:30;;;;;;;5.68;3.08;;;24.30;93.10;;;;;;4982670;28;20712;-70
2023/05/28 10:57:16;;;;;;;4.55;3.00;;;24.60;89.90;;;;;;4990122;28;20188;-71
2023/05/28 11:00:00;;;;;;;7.25;3.13;;;24.50;89.70;;;;;;4990525;28;20200;-69
2023/05/28 11:02:33;;;;;;;4.03;2.92;;;24.40;83.00;;;;;;4993843;28;20148;-69
2023/05/28 11:05:00;;;;;;;6.82;3.20;;;24.40;84.50;;;;;;4993276;28;20605;-69
2023/05/28 11:07:35;;;;;;;7.80;2.67;;;24.20;88.50;;;;;;4993133;28;20201;-70
2023/05/28 11:10:02;;;;;;;6.65;3.38;;;24.90;85.00;;;;;;4992566;28;20164;-70
2023/05/28 11:12:31;;;;;;;3.05;2.67;;;25.10;80.10;;;;;;4992466;28;20176;-69
2023/05/28 11:14:56;;;;;;;6.40;2.88;;;25.00;75.80;;;;;;4993640;28;20168;-70
2023/05/28 11:17:22;;;;;;;5.28;2.95;;;24.90;71.30;;;;;;4992969;28;20176;-71
2023/05/28 11:19:50;;;;;;;5.90;3.08;;;25.10;64.80;;;;;;4992358;28;20241;-70
2023/05/28 11:22:19;;;;;;;4.07;2.80;;;25.20;65.10;;;;;;5052726;23;20230;-65
2023/05/28 11:24:49;;;;;;;5.40;2.72;;;25.30;67.40;;;;;;5051373;28;20681;-65
2023/05/28 11:27:15;;;;;;;4.40;3.03;;;25.10;72.10;;;;;;5034581;28;20167;-67
2023/05/28 11:29:41;;;;;;;5.30;3.00;;;25.20;70.70;;;;;;5034622;28;20190;-66
2023/05/28 11:32:06;;;;;;;4.00;2.95;;;25.30;64.70;;;;;;5034639;28;20167;-67
2023/05/28 11:34:32;;;;;;;4.25;2.90;;;24.80;66.60;;;;;;5034462;28;20167;-64
2023/05/28 11:36:59;;;;;;;5.20;3.00;;;25.30;68.70;;;;;;5034180;28;20207;-66
2023/05/28 11:39:25;;;;;;;5.25;2.95;;;25.30;68.40;;;;;;5034959;28;20528;-67
2023/05/28 11:41:50;;;;;;;3.80;3.10;;;25.30;68.60;;;;;;5022040;28;20180;-65
2023/05/28 11:44:21;;;;;;;5.03;2.47;;;25.10;62.40;;;;;;5033246;28;20195;-65
2023/05/28 11:46:50;;;;;;;3.47;2.55;;;25.40;59.80;;;;;;5035037;28;20187;-66
2023/05/28 11:49:15;;;;;;;6.47;3.17;;;25.90;62.70;;;;;;5035145;28;20167;-68
2023/05/28 11:51:41;;;;;;;4.07;2.92;;;25.90;60.30;;;;;;5034454;28;20228;-68
2023/05/28 11:54:07;;;;;;;5.55;3.10;;;25.60;64.30;;;;;;5033094;28;20533;-68
2023/05/28 11:56:34;;;;;;;5.45;2.95;;;25.40;62.40;;;;;;5033975;28;20194;-69
2023/05/28 11:59:02;;;;;;;3.67;2.80;;;26.00;64.80;;;;;;5032777;28;20191;-68
2023/05/28 12:01:34;;;;;;;5.93;3.50;;;26.30;59.50;;;;;;5034119;28;20255;-68
2023/05/28 12:04:06;;;;;;;5.65;2.97;;;26.10;60.30;;;;;;5032935;28;20171;-67
2023/05/28 12:06:51;;;;;;;4.72;2.92;;;26.30;60.10;;;;;;5032640;28;20761;-68
2023/05/28 12:09:16;;;;;;;5.15;2.67;;;26.40;65.30;;;;;;5034090;28;20168;-68
2023/05/28 12:11:42;;;;;;;4.97;3.25;;;26.40;60.80;;;;;;5016647;28;20183;-70
2023/05/28 12:14:10;;;;;;;7.20;3.38;;;26.30;60.00;;;;;;5033107;28;20171;-68
2023/05/28 12:16:54;;;;;;;3.00;2.70;;;26.10;58.50;;;;;;5014332;28;20710;-68
2023/05/28 12:19:19;;;;;;;6.25;3.50;;;26.10;63.30;;;;;;5028746;28;20171;-67
2023/05/28 12:21:45;;;;;;;4.85;2.92;;;26.30;60.90;;;;;;5033438;28;20266;-69
2023/05/28 12:24:17;;;;;;;4.50;2.92;;;26.50;57.80;;;;;;5033606;28;20304;-69
2023/05/28 12:26:42;;;;;;;4.65;3.35;;;26.40;58.00;;;;;;5016944;28;20239;-69
2023/05/28 12:29:08;;;;;;;4.78;3.10;;;26.30;59.10;;;;;;5002126;28;20211;-69
2023/05/28 12:31:34;;;;;;;6.15;3.22;;;26.30;57.70;;;;;;5029734;28;20229;-68
2023/05/28 12:34:00;;;;;;;5.72;3.25;;;27.00;57.70;;;;;;5033653;28;20570;-68
2023/05/28 12:36:25;;;;;;;5.22;2.92;;;26.50;56.60;;;;;;5010989;28;20196;-67
2023/05/28 12:38:51;;;;;;;5.70;3.78;;;26.60;58.50;;;;;;5029343;28;20175;-68
2023/05/28 12:41:17;;;;;;;5.28;3.63;;;26.50;57.10;;;;;;5012542;28;20172;-68
2023/05/28 12:43:44;;;;;;;6.20;3.65;;;27.20;57.50;;;;;;5029568;28;20394;-68
2023/05/28 12:46:10;;;;;;;7.75;4.20;;;26.80;56.40;;;;;;5023941;28;20684;-68